Sacramento, California
Traffic Map
Current Weather Conditions
Sacramento, California
Overcast
Overcast
49°
Feels Like: 49°
Wind Chill: 49° Ceiling: 7500
Heat Index: 49° Visibility: 10mi
Dew Point: 43° Wind: 3mph
Humidity: 80% Direction: 160° (SSE)
Pressure: 29.76in Gusts: 0mph
Raw Report DataKSAC 281553Z 16003KT 10SM BKN075 BKN090 OVC110 09/06 A2976 RMK AO2 SLP077 T00940061
Traffic Incident Summary
Active as of:
Severity:
Category:
InformationThere was an issue retrieving the traffic information for this location. Please try a different location or try again shortly.
Advertisements
Track Severe Weather on mobile